Weather History for Harvey, ND

Change the Weather History Date:

Sunday, November 25, 2012

  Actual Average (KRUG) Record (KRUG)
Temperature  
Mean Temperature 14 °F -  
Max Temperature 26 °F 29 °F 59 °F (1960)
Min Temperature 1 °F 14 °F -12 °F (1977)
Degree Days  
Heating Degree Days 50    
Moisture  
Dew Point 12 °F    
Average Humidity 83    
Maximum Humidity 93    
Minimum Humidity 67    
Precipitation  
Precipitation 0.00 in - - ()
Sea Level Pressure  
Sea Level Pressure 30.05 in    
Wind  
Wind Speed 15 mph (NW)    
Max Wind Speed 25 mph    
Max Gust Speed 30 mph    
Visibility 10 miles    
Events Snow    
Averages and records for this station are not official NWS values.
T = Trace of Precipitation, MM = Missing Value Source: NWS Daily Summary

Daily Weather History Graph

Daily Weather History Graph

Search for Another Location

Airport:

Trip Planner

Search our weather history database for the weather conditions in past years. The results will help you decide how hot, cold, wet, or windy it might be!

Date:

Astronomy

Nov. 25, 2012 Rise Set
Actual Time 8:00 AM CST 4:52 PM CST
Civil Twilight 7:25 AM CST 5:27 PM CST
Nautical Twilight 6:47 AM CST 6:06 PM CST
Astronomical Twilight 6:10 AM CST 6:43 PM CST
Moon 3:17 PM CST 5:07 AM CST
Length of Visible Light 10h 01m
Length of Day
8h 52m
Waxing Gibbous, 93% of the Moon is Illuminated
Nov 25
Waxing Gibbous
Nov 28
Full
Dec 6
Last Quarter
Dec 13
New
Dec 19
First Quarter

Hourly Weather History & Observations

Time (CST) Temp. Windchill Dew Point Humidity Pressure Visibility Wind Dir Wind Speed Gust Speed Precip Events Conditions
12:15 AM 21.2 °F 7.8 °F 19.4 °F 93% 29.93 in 10.0 mi NW 15.0 mph - N/A   Overcast
12:35 AM 21.2 °F 9.5 °F 19.4 °F 93% 29.93 in 10.0 mi WNW 11.5 mph - N/A   Overcast
12:55 AM 21.2 °F 7.3 °F 19.4 °F 93% 29.93 in 10.0 mi WNW 16.1 mph - N/A   Overcast
1:15 AM 23.0 °F 8.7 °F 19.4 °F 86% 29.93 in 10.0 mi WNW 18.4 mph - N/A   Overcast
1:35 AM 23.0 °F 11.1 °F 21.2 °F 93% 29.93 in 10.0 mi WNW 12.7 mph 25.3 mph N/A   Overcast
1:55 AM 23.0 °F 9.6 °F 21.2 °F 93% 29.92 in 10.0 mi WNW 16.1 mph 20.7 mph N/A   Overcast
2:15 AM 24.8 °F 12.9 °F 23.0 °F 93% 29.92 in 10.0 mi WNW 13.8 mph 18.4 mph N/A   Overcast
2:35 AM 24.8 °F 14.0 °F 23.0 °F 93% 29.92 in 10.0 mi WNW 11.5 mph 18.4 mph N/A   Overcast
2:55 AM 24.8 °F 12.9 °F 23.0 °F 93% 29.93 in 10.0 mi West 13.8 mph - N/A   Overcast
3:15 AM 24.8 °F 14.6 °F 23.0 °F 93% 29.93 in 10.0 mi West 10.4 mph 20.7 mph N/A   Overcast
3:35 AM 24.8 °F 13.4 °F 23.0 °F 93% 29.92 in 10.0 mi WSW 12.7 mph - N/A   Overcast
3:55 AM 24.8 °F 14.0 °F 23.0 °F 93% 29.92 in 10.0 mi WSW 11.5 mph - N/A   Overcast
4:15 AM 24.8 °F 13.4 °F 23.0 °F 93% 29.90 in 10.0 mi WSW 12.7 mph - N/A   Overcast
4:35 AM 23.0 °F 11.1 °F 21.2 °F 93% 29.90 in 10.0 mi SW 12.7 mph - N/A   Mostly Cloudy
4:55 AM 23.0 °F 12.4 °F 21.2 °F 93% 29.90 in 10.0 mi WSW 10.4 mph - N/A   Mostly Cloudy
5:15 AM 23.0 °F 12.4 °F 21.2 °F 93% 29.90 in 10.0 mi WSW 10.4 mph - N/A   Mostly Cloudy
5:35 AM 21.2 °F 10.1 °F 19.4 °F 93% 29.90 in 10.0 mi WSW 10.4 mph - N/A   Mostly Cloudy
5:55 AM 23.0 °F 11.1 °F 21.2 °F 93% 29.91 in 10.0 mi West 12.7 mph 18.4 mph N/A   Overcast
6:15 AM 24.8 °F 13.4 °F 23.0 °F 93% 29.91 in 10.0 mi West 12.7 mph 18.4 mph N/A   Overcast
6:35 AM 24.8 °F 13.4 °F 23.0 °F 93% 29.91 in 10.0 mi West 12.7 mph 19.6 mph N/A   Overcast
6:55 AM 26.6 °F 15.2 °F 23.0 °F 86% 29.91 in 10.0 mi WNW 13.8 mph - N/A   Overcast
7:15 AM 26.6 °F 14.3 °F 24.8 °F 93% 29.92 in 10.0 mi WNW 16.1 mph - N/A   Overcast
7:35 AM 26.6 °F 14.7 °F 24.8 °F 93% 29.92 in 10.0 mi WNW 15.0 mph 19.6 mph N/A   Overcast
7:55 AM 26.6 °F 12.7 °F 24.8 °F 93% 29.93 in 10.0 mi NW 20.7 mph 25.3 mph N/A   Overcast
8:15 AM 24.8 °F 10.0 °F 19.4 °F 80% 29.94 in 10.0 mi NW 21.9 mph 29.9 mph N/A   Mostly Cloudy
8:35 AM 24.8 °F 11.5 °F 19.4 °F 80% 29.95 in 10.0 mi NW 17.3 mph 24.2 mph N/A   Mostly Cloudy
8:55 AM 24.8 °F 11.1 °F 17.6 °F 74% 29.96 in 10.0 mi NW 18.4 mph 26.5 mph N/A   Overcast
9:15 AM 23.0 °F 8.0 °F 17.6 °F 80% 29.97 in 10.0 mi NW 20.7 mph 28.8 mph N/A   Overcast
9:35 AM 23.0 °F 7.6 °F 15.8 °F 74% 29.98 in 10.0 mi NW 21.9 mph 25.3 mph N/A Snow Light Snow
9:55 AM 23.0 °F 8.0 °F 15.8 °F 74% 29.99 in 10.0 mi NW 20.7 mph 27.6 mph N/A Snow Light Snow
10:15 AM 23.0 °F 6.6 °F 15.8 °F 74% 30.00 in 10.0 mi NW 25.3 mph 28.8 mph N/A Snow Light Snow
10:35 AM 23.0 °F 7.2 °F 17.6 °F 80% 30.01 in 10.0 mi NW 23.0 mph 29.9 mph N/A   Overcast
10:55 AM 19.4 °F 2.8 °F 15.8 °F 86% 30.02 in 10.0 mi NNW 21.9 mph 27.6 mph N/A   Overcast
11:15 AM 19.4 °F 2.8 °F 14.0 °F 80% 30.03 in 10.0 mi NNW 21.9 mph 28.8 mph N/A Snow Light Snow
11:35 AM 19.4 °F 3.6 °F 14.0 °F 80% 30.04 in 9.0 mi NNW 19.6 mph 27.6 mph N/A Snow Light Snow
11:55 AM 17.6 °F 2.2 °F 12.2 °F 79% 30.04 in 10.0 mi NNW 17.3 mph - N/A Snow Light Snow
12:15 PM 17.6 °F 1.3 °F 12.2 °F 79% 30.04 in 10.0 mi NNW 19.6 mph 24.2 mph N/A   Overcast
12:35 PM 17.6 °F 2.2 °F 12.2 °F 79% 30.04 in 10.0 mi NNW 17.3 mph - N/A Snow Light Snow
12:55 PM 17.6 °F 1.7 °F 10.4 °F 73% 30.05 in 10.0 mi NNW 18.4 mph - N/A   Overcast
1:15 PM 15.8 °F 0.3 °F 8.6 °F 73% 30.05 in 10.0 mi NNW 16.1 mph - N/A   Overcast
1:35 PM 17.6 °F 2.7 °F 8.6 °F 68% 30.06 in 10.0 mi NNW 16.1 mph - N/A   Overcast
1:55 PM 15.8 °F 0.3 °F 6.8 °F 68% 30.06 in 10.0 mi NNW 16.1 mph - N/A   Overcast
2:15 PM 17.6 °F 2.7 °F 8.6 °F 68% 30.06 in 10.0 mi NW 16.1 mph - N/A   Overcast
2:35 PM 15.8 °F 1.4 °F 8.6 °F 73% 30.07 in 8.0 mi NNW 13.8 mph 21.9 mph N/A Snow Light Snow
2:55 PM 15.8 °F 1.4 °F 6.8 °F 68% 30.08 in 10.0 mi North 13.8 mph - N/A Snow Light Snow
3:15 PM 14.0 °F -2.0 °F 6.8 °F 73% 30.08 in 10.0 mi NNW 16.1 mph 20.7 mph N/A   Overcast
3:35 PM 14.0 °F -1.4 °F 6.8 °F 73% 30.09 in 10.0 mi NNW 15.0 mph - N/A   Overcast
3:55 PM 14.0 °F -2.5 °F 5.0 °F 67% 30.10 in 10.0 mi NNW 17.3 mph - N/A   Overcast
4:15 PM 12.2 °F -4.3 °F 5.0 °F 73% 30.11 in 10.0 mi NNW 16.1 mph - N/A   Overcast
4:35 PM 10.4 °F -6.0 °F 5.0 °F 79% 30.12 in 10.0 mi NNW 15.0 mph 18.4 mph N/A   Scattered Clouds
4:55 PM 10.4 °F -4.8 °F 5.0 °F 79% 30.13 in 10.0 mi NNW 12.7 mph - N/A   Clear
5:15 PM 10.4 °F -5.4 °F 5.0 °F 79% 30.14 in 10.0 mi NW 13.8 mph - N/A   Scattered Clouds
5:35 PM 10.4 °F -6.0 °F 5.0 °F 79% 30.15 in 10.0 mi NNW 15.0 mph - N/A   Mostly Cloudy
5:55 PM 10.4 °F -7.2 °F 5.0 °F 79% 30.17 in 10.0 mi NW 17.3 mph - N/A   Overcast
6:15 PM 10.4 °F -6.0 °F 5.0 °F 79% 30.18 in 10.0 mi NNW 15.0 mph 18.4 mph N/A   Overcast
6:35 PM 10.4 °F -6.0 °F 5.0 °F 79% 30.18 in 10.0 mi NNW 15.0 mph - N/A   Overcast
6:55 PM 10.4 °F -6.0 °F 5.0 °F 79% 30.19 in 10.0 mi NNW 15.0 mph - N/A   Overcast
7:15 PM 8.6 °F -5.5 °F 5.0 °F 85% 30.20 in 10.0 mi NNW 10.4 mph - N/A   Overcast
7:35 PM 8.6 °F -6.3 °F 3.2 °F 79% 30.21 in 10.0 mi NNW 11.5 mph - N/A   Scattered Clouds
7:55 PM 6.8 °F -8.6 °F 3.2 °F 85% 30.21 in 10.0 mi NNW 11.5 mph - N/A   Clear
8:15 PM 6.8 °F -7.8 °F 1.4 °F 79% 30.22 in 10.0 mi NW 10.4 mph - N/A   Clear
8:35 PM 6.8 °F -6.9 °F 1.4 °F 79% 30.23 in 10.0 mi NW 9.2 mph - N/A   Clear
8:55 PM 5.0 °F -8.1 °F 1.4 °F 85% 30.24 in 10.0 mi NW 8.1 mph - N/A   Clear
9:15 PM 5.0 °F -9.1 °F 1.4 °F 85% 30.25 in 10.0 mi NW 9.2 mph - N/A   Clear
9:35 PM 5.0 °F -6.9 °F -0.4 °F 78% 30.26 in 10.0 mi NW 6.9 mph - N/A   Clear
9:55 PM 5.0 °F -6.9 °F -0.4 °F 78% 30.27 in 10.0 mi NW 6.9 mph - N/A   Clear
10:15 PM 5.0 °F -5.6 °F -0.4 °F 78% 30.27 in 10.0 mi NW 5.8 mph - N/A   Clear
10:35 PM 5.0 °F -8.1 °F -0.4 °F 78% 30.27 in 10.0 mi NW 8.1 mph - N/A   Clear
10:55 PM 5.0 °F -8.1 °F -0.4 °F 78% 30.28 in 10.0 mi NW 8.1 mph - N/A   Clear
11:15 PM 3.2 °F -7.8 °F -0.4 °F 85% 30.28 in 10.0 mi NW 5.8 mph - N/A   Clear
11:35 PM 3.2 °F -10.3 °F -0.4 °F 85% 30.29 in 10.0 mi NW 8.1 mph - N/A   Clear
11:55 PM 1.4 °F -13.5 °F -0.4 °F 92% 30.29 in 10.0 mi WNW 9.2 mph - N/A   Clear